PWSweather.com
Personal Weather Stations
Station Observations
KCOGRAND2
Redlands, Southcamp Road & Dakota Circle, Grand Junction, CO 81507

Redlands, Southcamp Road & Dakota CircleGrand Junction, CO 81507

Lat: 39.055, Lon: -108.637

Elevation: 4870

Station Type: RadioShack WX200

Latest ConditionsUpdated 10:53:40 AM MDT Saturday, Aug 27, 2016
Currently Today's Max Today's Min Today's Average
Temperature 68.9°F20.5°C 68.9°F20.5°C 54.5°F12.5°C 59.6°F15.3°C
Dew Point 37.8°F3.2°C 45.9°F7.7°C 36.9°F2.7°C 41.7°F5.4°C
Winds 6.0 mph NNW9.7 kmh NNW 7.0 mph N11.3 kmh N - 3.5 mph 5.6 kmh
Wind Gusts 11.0 mph17.7 kmh 12.1 mph19.5 kmh - -
Humidity 32% 66% 32% 52%
Pressure 25.19 in853.0 mb 25.19 in853.0 mb 25.16 in852.0 mb -
Hour Temp Dew Point Humidity Winds Wind Gusts Pressure Precip Precip Rate Daily Precip Total
10:53 AM 68.9°F20.5°C 37.8°F3.2°C 32% 6.0 mph NNW9.7 kmh NNW 11.0 mph17.7 kmh 25.19 in853.0 mb 0.00 in0.0 mm 0.00 in0.0 mm 0.00 in0.0 mm
10:48 AM 67.8°F19.9°C 36.9°F2.7°C 32% 7.0 mph N11.3 kmh N 11.2 mph18.0 kmh 25.19 in853.0 mb 0.00 in0.0 mm 0.00 in0.0 mm 0.00 in0.0 mm
10:43 AM 68.0°F20.0°C 37.8°F3.2°C 33% 7.0 mph NNW11.3 kmh NNW 10.5 mph16.9 kmh 25.19 in853.0 mb 0.00 in0.0 mm 0.00 in0.0 mm 0.00 in0.0 mm
10:38 AM 67.1°F19.5°C 37.0°F2.8°C 33% 7.0 mph NW11.3 kmh NW 10.1 mph16.3 kmh 25.19 in853.0 mb 0.00 in0.0 mm 0.00 in0.0 mm 0.00 in0.0 mm
10:33 AM 66.9°F19.4°C 37.6°F3.1°C 34% 7.0 mph NW11.3 kmh NW 12.1 mph19.5 kmh 25.19 in853.0 mb 0.00 in0.0 mm 0.00 in0.0 mm 0.00 in0.0 mm
10:28 AM 66.4°F19.1°C 37.2°F2.9°C 34% 6.0 mph NNW9.7 kmh NNW 10.5 mph16.9 kmh 25.19 in853.0 mb 0.00 in0.0 mm 0.00 in0.0 mm 0.00 in0.0 mm
10:23 AM 67.1°F19.5°C 37.8°F3.2°C 34% 6.0 mph NNW9.7 kmh NNW 9.2 mph14.8 kmh 25.19 in853.0 mb 0.00 in0.0 mm 0.00 in0.0 mm 0.00 in0.0 mm
10:18 AM 66.4°F19.1°C 37.9°F3.3°C 35% 6.0 mph NNW9.7 kmh NNW 10.5 mph16.9 kmh 25.19 in853.0 mb 0.00 in0.0 mm 0.00 in0.0 mm 0.00 in0.0 mm
10:13 AM 66.0°F18.9°C 38.3°F3.5°C 36% 6.0 mph NW9.7 kmh NW 10.1 mph16.3 kmh 25.19 in853.0 mb 0.00 in0.0 mm 0.00 in0.0 mm 0.00 in0.0 mm
10:08 AM 64.9°F18.3°C 37.4°F3.0°C 36% 5.0 mph NNW8.0 kmh NNW 8.7 mph14.0 kmh 25.19 in853.0 mb 0.00 in0.0 mm 0.00 in0.0 mm 0.00 in0.0 mm
10:03 AM 65.1°F18.4°C 38.8°F3.8°C 38% 4.0 mph NNW6.4 kmh NNW 7.4 mph11.9 kmh 25.19 in853.0 mb 0.00 in0.0 mm 0.00 in0.0 mm 0.00 in0.0 mm
09:58 AM 64.8°F18.2°C 39.2°F4.0°C 39% 4.0 mph N6.4 kmh N 6.9 mph11.1 kmh 25.19 in853.0 mb 0.00 in0.0 mm 0.00 in0.0 mm 0.00 in0.0 mm
09:53 AM 64.2°F17.9°C 39.4°F4.1°C 40% 5.0 mph N8.0 kmh N 8.7 mph14.0 kmh 25.19 in853.0 mb 0.00 in0.0 mm 0.00 in0.0 mm 0.00 in0.0 mm
09:48 AM 64.2°F17.9°C 39.4°F4.1°C 40% 5.0 mph N8.0 kmh N 7.4 mph11.9 kmh 25.19 in853.0 mb 0.00 in0.0 mm 0.00 in0.0 mm 0.00 in0.0 mm
09:43 AM 63.9°F17.7°C 39.0°F3.9°C 40% 5.0 mph NNW8.0 kmh NNW 7.4 mph11.9 kmh 25.19 in853.0 mb 0.00 in0.0 mm 0.00 in0.0 mm 0.00 in0.0 mm
09:38 AM 63.9°F17.7°C 39.7°F4.3°C 41% 5.0 mph NW8.0 kmh NW 7.4 mph11.9 kmh 25.19 in853.0 mb 0.00 in0.0 mm 0.00 in0.0 mm 0.00 in0.0 mm
09:33 AM 63.7°F17.6°C 40.8°F4.9°C 43% 5.0 mph NW8.0 kmh NW 7.8 mph12.6 kmh 25.19 in853.0 mb 0.00 in0.0 mm 0.00 in0.0 mm 0.00 in0.0 mm
09:28 AM 62.6°F17.0°C 39.7°F4.3°C 43% 5.0 mph NNW8.0 kmh NNW 8.3 mph13.4 kmh 25.19 in853.0 mb 0.00 in0.0 mm 0.00 in0.0 mm 0.00 in0.0 mm
09:23 AM 62.6°F17.0°C 39.7°F4.3°C 43% 5.0 mph N8.0 kmh N 7.8 mph12.6 kmh 25.19 in853.0 mb 0.00 in0.0 mm 0.00 in0.0 mm 0.00 in0.0 mm
09:18 AM 62.6°F17.0°C 40.5°F4.7°C 44% 5.0 mph N8.0 kmh N 7.8 mph12.6 kmh 25.19 in853.0 mb 0.00 in0.0 mm 0.00 in0.0 mm 0.00 in0.0 mm
09:13 AM 61.9°F16.6°C 39.7°F4.3°C 44% 6.0 mph N9.7 kmh N 6.9 mph11.1 kmh 25.19 in853.0 mb 0.00 in0.0 mm 0.00 in0.0 mm 0.00 in0.0 mm
09:08 AM 62.1°F16.7°C 39.9°F4.4°C 44% 6.0 mph N9.7 kmh N 10.5 mph16.9 kmh 25.19 in853.0 mb 0.00 in0.0 mm 0.00 in0.0 mm 0.00 in0.0 mm
09:03 AM 61.9°F16.6°C 40.3°F4.6°C 45% 6.0 mph N9.7 kmh N 9.2 mph14.8 kmh 25.19 in853.0 mb 0.00 in0.0 mm 0.00 in0.0 mm 0.00 in0.0 mm
08:58 AM 61.5°F16.4°C 39.9°F4.4°C 45% 6.0 mph N9.7 kmh N 8.3 mph13.4 kmh 25.19 in853.0 mb 0.00 in0.0 mm 0.00 in0.0 mm 0.00 in0.0 mm
08:53 AM 61.7°F16.5°C 40.6°F4.8°C 46% 6.0 mph N9.7 kmh N 10.5 mph16.9 kmh 25.19 in853.0 mb 0.00 in0.0 mm 0.00 in0.0 mm 0.00 in0.0 mm
08:48 AM 61.5°F16.4°C 40.5°F4.7°C 46% 6.0 mph N9.7 kmh N 8.7 mph14.0 kmh 25.19 in853.0 mb 0.00 in0.0 mm 0.00 in0.0 mm 0.00 in0.0 mm
08:43 AM 61.0°F16.1°C 40.1°F4.5°C 46% 6.0 mph N9.7 kmh N 11.2 mph18.0 kmh 25.19 in853.0 mb 0.00 in0.0 mm 0.00 in0.0 mm 0.00 in0.0 mm
08:38 AM 61.0°F16.1°C 40.1°F4.5°C 46% 6.0 mph NNE9.7 kmh NNE 8.7 mph14.0 kmh 25.19 in853.0 mb 0.00 in0.0 mm 0.00 in0.0 mm 0.00 in0.0 mm
08:33 AM 60.6°F15.9°C 40.3°F4.6°C 47% 6.0 mph NNE9.7 kmh NNE 10.5 mph16.9 kmh 25.19 in853.0 mb 0.00 in0.0 mm 0.00 in0.0 mm 0.00 in0.0 mm
08:28 AM 60.3°F15.7°C 40.5°F4.7°C 48% 7.0 mph N11.3 kmh N 9.6 mph15.4 kmh 25.19 in853.0 mb 0.00 in0.0 mm 0.00 in0.0 mm 0.00 in0.0 mm
08:23 AM 59.9°F15.5°C 39.6°F4.2°C 47% 7.0 mph N11.3 kmh N 11.2 mph18.0 kmh 25.19 in853.0 mb 0.00 in0.0 mm 0.00 in0.0 mm 0.00 in0.0 mm
08:18 AM 60.1°F15.6°C 40.3°F4.6°C 48% 6.0 mph N9.7 kmh N 10.1 mph16.3 kmh 25.19 in853.0 mb 0.00 in0.0 mm 0.00 in0.0 mm 0.00 in0.0 mm
08:13 AM 60.4°F15.8°C 42.3°F5.7°C 51% 6.0 mph NNE9.7 kmh NNE 11.0 mph17.7 kmh 25.19 in853.0 mb 0.00 in0.0 mm 0.00 in0.0 mm 0.00 in0.0 mm
08:08 AM 59.9°F15.5°C 41.7°F5.4°C 51% 7.0 mph NNE11.3 kmh NNE 11.0 mph17.7 kmh 25.19 in853.0 mb 0.00 in0.0 mm 0.00 in0.0 mm 0.00 in0.0 mm
08:03 AM 59.5°F15.3°C 41.9°F5.5°C 52% 7.0 mph N11.3 kmh N 10.5 mph16.9 kmh 25.19 in853.0 mb 0.00 in0.0 mm 0.00 in0.0 mm 0.00 in0.0 mm
07:58 AM 59.2°F15.1°C 41.0°F5.0°C 51% 6.0 mph N9.7 kmh N 11.0 mph17.7 kmh 25.19 in853.0 mb 0.00 in0.0 mm 0.00 in0.0 mm 0.00 in0.0 mm
07:53 AM 59.4°F15.2°C 41.7°F5.4°C 52% 6.0 mph N9.7 kmh N 9.2 mph14.8 kmh 25.19 in853.0 mb 0.00 in0.0 mm 0.00 in0.0 mm 0.00 in0.0 mm
07:48 AM 59.0°F15.0°C 41.4°F5.2°C 52% 6.0 mph N9.7 kmh N 10.1 mph16.3 kmh 25.19 in853.0 mb 0.00 in0.0 mm 0.00 in0.0 mm 0.00 in0.0 mm
07:43 AM 59.0°F15.0°C 41.9°F5.5°C 53% 5.0 mph N8.0 kmh N 7.8 mph12.6 kmh 25.19 in853.0 mb 0.00 in0.0 mm 0.00 in0.0 mm 0.00 in0.0 mm
07:38 AM 58.6°F14.8°C 42.4°F5.8°C 55% 5.0 mph N8.0 kmh N 10.1 mph16.3 kmh 25.19 in853.0 mb 0.00 in0.0 mm 0.00 in0.0 mm 0.00 in0.0 mm
07:33 AM 58.1°F14.5°C 43.0°F6.1°C 57% 5.0 mph N8.0 kmh N 7.8 mph12.6 kmh 25.19 in853.0 mb 0.00 in0.0 mm 0.00 in0.0 mm 0.00 in0.0 mm
07:28 AM 57.4°F14.1°C 42.8°F6.0°C 58% 5.0 mph N8.0 kmh N 7.4 mph11.9 kmh 25.19 in853.0 mb 0.00 in0.0 mm 0.00 in0.0 mm 0.00 in0.0 mm
07:23 AM 57.2°F14.0°C 43.0°F6.1°C 59% 5.0 mph N8.0 kmh N 8.3 mph13.4 kmh 25.19 in853.0 mb 0.00 in0.0 mm 0.00 in0.0 mm 0.00 in0.0 mm
07:18 AM 57.2°F14.0°C 43.9°F6.6°C 61% 4.0 mph N6.4 kmh N 7.4 mph11.9 kmh 25.19 in853.0 mb 0.00 in0.0 mm 0.00 in0.0 mm 0.00 in0.0 mm
07:13 AM 56.5°F13.6°C 44.8°F7.1°C 65% 3.0 mph NNE4.8 kmh NNE 8.7 mph14.0 kmh 25.19 in853.0 mb 0.00 in0.0 mm 0.00 in0.0 mm 0.00 in0.0 mm
07:08 AM 55.4°F13.0°C 44.2°F6.8°C 66% 2.0 mph NNE3.2 kmh NNE 4.9 mph7.9 kmh 25.19 in853.0 mb 0.00 in0.0 mm 0.00 in0.0 mm 0.00 in0.0 mm
07:03 AM 55.0°F12.8°C 43.5°F6.4°C 65% 2.0 mph NNE3.2 kmh NNE 4.9 mph7.9 kmh 25.19 in853.0 mb 0.00 in0.0 mm 0.00 in0.0 mm 0.00 in0.0 mm
06:58 AM 54.5°F12.5°C 42.6°F5.9°C 64% Calm Calm 4.5 mph7.2 kmh 25.19 in853.0 mb 0.00 in0.0 mm 0.00 in0.0 mm 0.00 in0.0 mm
06:52 AM 54.9°F12.7°C 43.0°F6.1°C 64% Calm Calm 2.7 mph4.3 kmh 25.19 in853.0 mb 0.00 in0.0 mm 0.00 in0.0 mm 0.00 in0.0 mm
06:47 AM 55.4°F13.0°C 42.6°F5.9°C 62% Calm Calm -- 25.19 in853.0 mb 0.00 in0.0 mm 0.00 in0.0 mm 0.00 in0.0 mm
06:42 AM 55.8°F13.2°C 42.1°F5.6°C 60% Calm Calm -- 25.16 in852.0 mb 0.00 in0.0 mm 0.00 in0.0 mm 0.00 in0.0 mm
06:37 AM 56.3°F13.5°C 41.7°F5.4°C 58% 2.0 mph N3.2 kmh N 4.9 mph7.9 kmh 25.16 in852.0 mb 0.00 in0.0 mm 0.00 in0.0 mm 0.00 in0.0 mm
06:32 AM 57.0°F13.9°C 41.5°F5.3°C 56% 4.0 mph N6.4 kmh N 8.7 mph14.0 kmh 25.16 in852.0 mb 0.00 in0.0 mm 0.00 in0.0 mm 0.00 in0.0 mm
06:27 AM 57.4°F14.1°C 41.4°F5.2°C 55% 6.0 mph N9.7 kmh N 8.7 mph14.0 kmh 25.16 in852.0 mb 0.00 in0.0 mm 0.00 in0.0 mm 0.00 in0.0 mm
06:22 AM 57.9°F14.4°C 42.3°F5.7°C 56% 6.0 mph N9.7 kmh N 11.0 mph17.7 kmh 25.16 in852.0 mb 0.00 in0.0 mm 0.00 in0.0 mm 0.00 in0.0 mm
06:17 AM 57.0°F13.9°C 42.4°F5.8°C 58% 6.0 mph N9.7 kmh N 8.3 mph13.4 kmh 25.16 in852.0 mb 0.00 in0.0 mm 0.00 in0.0 mm 0.00 in0.0 mm
06:12 AM 56.8°F13.8°C 42.3°F5.7°C 58% 6.0 mph N9.7 kmh N 8.7 mph14.0 kmh 25.16 in852.0 mb 0.00 in0.0 mm 0.00 in0.0 mm 0.00 in0.0 mm
06:07 AM 57.0°F13.9°C 41.9°F5.5°C 57% 6.0 mph N9.7 kmh N 11.0 mph17.7 kmh 25.16 in852.0 mb 0.00 in0.0 mm 0.00 in0.0 mm 0.00 in0.0 mm
06:02 AM 57.4°F14.1°C 42.3°F5.7°C 57% 3.0 mph NNE4.8 kmh NNE 8.7 mph14.0 kmh 25.16 in852.0 mb 0.00 in0.0 mm 0.00 in0.0 mm 0.00 in0.0 mm
05:57 AM 57.0°F13.9°C 41.9°F5.5°C 57% 1.0 mph NNE1.6 kmh NNE 4.0 mph6.4 kmh 25.16 in852.0 mb 0.00 in0.0 mm 0.00 in0.0 mm 0.00 in0.0 mm
05:52 AM 57.6°F14.2°C 41.9°F5.5°C 56% 3.0 mph N4.8 kmh N 7.4 mph11.9 kmh 25.16 in852.0 mb 0.00 in0.0 mm 0.00 in0.0 mm 0.00 in0.0 mm
05:47 AM 57.7°F14.3°C 42.6°F5.9°C 57% 2.0 mph N3.2 kmh N 8.7 mph14.0 kmh 25.16 in852.0 mb 0.00 in0.0 mm 0.00 in0.0 mm 0.00 in0.0 mm
05:42 AM 57.2°F14.0°C 42.1°F5.6°C 57% Calm Calm 5.8 mph9.3 kmh 25.16 in852.0 mb 0.00 in0.0 mm 0.00 in0.0 mm 0.00 in0.0 mm
05:37 AM 57.2°F14.0°C 42.1°F5.6°C 57% Calm Calm 4.0 mph6.4 kmh 25.16 in852.0 mb 0.00 in0.0 mm 0.00 in0.0 mm 0.00 in0.0 mm
05:32 AM 57.6°F14.2°C 41.9°F5.5°C 56% 3.0 mph NNE4.8 kmh NNE 4.9 mph7.9 kmh 25.16 in852.0 mb 0.00 in0.0 mm 0.00 in0.0 mm 0.00 in0.0 mm
05:27 AM 58.3°F14.6°C 41.7°F5.4°C 54% 5.0 mph N8.0 kmh N 8.7 mph14.0 kmh 25.16 in852.0 mb 0.00 in0.0 mm 0.00 in0.0 mm 0.00 in0.0 mm
05:22 AM 58.3°F14.6°C 41.7°F5.4°C 54% 5.0 mph N8.0 kmh N 8.3 mph13.4 kmh 25.16 in852.0 mb 0.00 in0.0 mm 0.00 in0.0 mm 0.00 in0.0 mm
05:17 AM 58.1°F14.5°C 42.1°F5.6°C 55% 5.0 mph N8.0 kmh N 8.3 mph13.4 kmh 25.16 in852.0 mb 0.00 in0.0 mm 0.00 in0.0 mm 0.00 in0.0 mm
05:12 AM 57.9°F14.4°C 41.9°F5.5°C 55% 4.0 mph N6.4 kmh N 7.4 mph11.9 kmh 25.16 in852.0 mb 0.00 in0.0 mm 0.00 in0.0 mm 0.00 in0.0 mm
05:07 AM 58.1°F14.5°C 41.5°F5.3°C 54% 5.0 mph N8.0 kmh N 7.4 mph11.9 kmh 25.16 in852.0 mb 0.00 in0.0 mm 0.00 in0.0 mm 0.00 in0.0 mm
05:02 AM 58.5°F14.7°C 41.4°F5.2°C 53% 5.0 mph N8.0 kmh N 9.2 mph14.8 kmh 25.16 in852.0 mb 0.00 in0.0 mm 0.00 in0.0 mm 0.00 in0.0 mm
04:57 AM 58.3°F14.6°C 41.2°F5.1°C 53% 5.0 mph 8.0 kmh 6.7 mph10.8 kmh 25.16 in852.0 mb 0.00 in0.0 mm 0.00 in0.0 mm 0.00 in0.0 mm
04:52 AM 58.3°F14.6°C 42.3°F5.7°C 55% 6.0 mph N9.7 kmh N 8.3 mph13.4 kmh 25.16 in852.0 mb 0.00 in0.0 mm 0.00 in0.0 mm 0.00 in0.0 mm
04:47 AM 58.1°F14.5°C 42.4°F5.8°C 56% 4.0 mph N6.4 kmh N 9.6 mph15.4 kmh 25.16 in852.0 mb 0.00 in0.0 mm 0.00 in0.0 mm 0.00 in0.0 mm
04:42 AM 58.1°F14.5°C 43.0°F6.1°C 57% 2.0 mph 3.2 kmh 4.9 mph7.9 kmh 25.16 in852.0 mb 0.00 in0.0 mm 0.00 in0.0 mm 0.00 in0.0 mm
04:37 AM 57.9°F14.4°C 42.8°F6.0°C 57% 1.0 mph N1.6 kmh N 4.9 mph7.9 kmh 25.16 in852.0 mb 0.00 in0.0 mm 0.00 in0.0 mm 0.00 in0.0 mm
04:32 AM 57.9°F14.4°C 43.2°F6.2°C 58% 1.0 mph N1.6 kmh N 4.5 mph7.2 kmh 25.16 in852.0 mb 0.00 in0.0 mm 0.00 in0.0 mm 0.00 in0.0 mm
04:27 AM 57.7°F14.3°C 43.0°F6.1°C 58% 2.0 mph NNE3.2 kmh NNE 4.9 mph7.9 kmh 25.16 in852.0 mb 0.00 in0.0 mm 0.00 in0.0 mm 0.00 in0.0 mm
04:22 AM 57.9°F14.4°C 43.2°F6.2°C 58% 4.0 mph NNE6.4 kmh NNE 7.8 mph12.6 kmh 25.16 in852.0 mb 0.00 in0.0 mm 0.00 in0.0 mm 0.00 in0.0 mm
04:17 AM 57.9°F14.4°C 44.6°F7.0°C 61% 3.0 mph NNE4.8 kmh NNE 7.8 mph12.6 kmh 25.16 in852.0 mb 0.00 in0.0 mm 0.00 in0.0 mm 0.00 in0.0 mm
04:12 AM 57.6°F14.2°C 44.6°F7.0°C 62% 2.0 mph NNE3.2 kmh NNE 4.5 mph7.2 kmh 25.16 in852.0 mb 0.00 in0.0 mm 0.00 in0.0 mm 0.00 in0.0 mm
04:07 AM 57.0°F13.9°C 44.6°F7.0°C 63% 2.0 mph NNE3.2 kmh NNE 5.8 mph9.3 kmh 25.16 in852.0 mb 0.00 in0.0 mm 0.00 in0.0 mm 0.00 in0.0 mm
04:02 AM 56.8°F13.8°C 44.4°F6.9°C 63% 2.0 mph NNE3.2 kmh NNE 4.0 mph6.4 kmh 25.16 in852.0 mb 0.00 in0.0 mm 0.00 in0.0 mm 0.00 in0.0 mm
03:57 AM 56.8°F13.8°C 44.4°F6.9°C 63% 2.0 mph NNE3.2 kmh NNE 4.5 mph7.2 kmh 25.16 in852.0 mb 0.00 in0.0 mm 0.00 in0.0 mm 0.00 in0.0 mm
03:52 AM 57.4°F14.1°C 45.0°F7.2°C 63% 2.0 mph NNE3.2 kmh NNE 4.9 mph7.9 kmh 25.16 in852.0 mb 0.00 in0.0 mm 0.00 in0.0 mm 0.00 in0.0 mm
03:47 AM 56.5°F13.6°C 44.4°F6.9°C 64% Calm Calm 4.0 mph6.4 kmh 25.16 in852.0 mb 0.00 in0.0 mm 0.00 in0.0 mm 0.00 in0.0 mm
03:42 AM 56.7°F13.7°C 43.7°F6.5°C 62% Calm Calm -- 25.16 in852.0 mb 0.00 in0.0 mm 0.00 in0.0 mm 0.00 in0.0 mm
03:37 AM 56.8°F13.8°C 43.2°F6.2°C 60% Calm Calm 2.7 mph4.3 kmh 25.16 in852.0 mb 0.00 in0.0 mm 0.00 in0.0 mm 0.00 in0.0 mm
03:32 AM 57.2°F14.0°C 42.6°F5.9°C 58% 2.0 mph NE3.2 kmh NE 3.1 mph5.0 kmh 25.16 in852.0 mb 0.00 in0.0 mm 0.00 in0.0 mm 0.00 in0.0 mm
03:27 AM 58.3°F14.6°C 41.7°F5.4°C 54% 4.0 mph N6.4 kmh N 6.9 mph11.1 kmh 25.16 in852.0 mb 0.00 in0.0 mm 0.00 in0.0 mm 0.00 in0.0 mm
03:22 AM 58.5°F14.7°C 41.9°F5.5°C 54% 3.0 mph N4.8 kmh N 6.3 mph10.1 kmh 25.16 in852.0 mb 0.00 in0.0 mm 0.00 in0.0 mm 0.00 in0.0 mm
03:17 AM 58.5°F14.7°C 41.9°F5.5°C 54% 2.0 mph N3.2 kmh N 4.0 mph6.4 kmh 25.16 in852.0 mb 0.00 in0.0 mm 0.00 in0.0 mm 0.00 in0.0 mm
03:12 AM 58.5°F14.7°C 42.4°F5.8°C 55% 1.0 mph NNE1.6 kmh NNE 4.0 mph6.4 kmh 25.16 in852.0 mb 0.00 in0.0 mm 0.00 in0.0 mm 0.00 in0.0 mm
03:07 AM 58.3°F14.6°C 42.3°F5.7°C 55% 2.0 mph N3.2 kmh N 4.9 mph7.9 kmh 25.16 in852.0 mb 0.00 in0.0 mm 0.00 in0.0 mm 0.00 in0.0 mm
03:02 AM 58.5°F14.7°C 42.4°F5.8°C 55% 4.0 mph N6.4 kmh N 6.9 mph11.1 kmh 25.16 in852.0 mb 0.00 in0.0 mm 0.00 in0.0 mm 0.00 in0.0 mm
02:57 AM 58.1°F14.5°C 42.1°F5.6°C 55% 3.0 mph NNE4.8 kmh NNE 8.7 mph14.0 kmh 25.16 in852.0 mb 0.00 in0.0 mm 0.00 in0.0 mm 0.00 in0.0 mm
02:52 AM 58.5°F14.7°C 41.4°F5.2°C 53% 3.0 mph N4.8 kmh N 6.3 mph10.1 kmh 25.16 in852.0 mb 0.00 in0.0 mm 0.00 in0.0 mm 0.00 in0.0 mm
02:47 AM 58.8°F14.9°C 41.2°F5.1°C 52% 3.0 mph N4.8 kmh N 5.8 mph9.3 kmh 25.16 in852.0 mb 0.00 in0.0 mm 0.00 in0.0 mm 0.00 in0.0 mm
02:42 AM 59.0°F15.0°C 41.4°F5.2°C 52% 2.0 mph N3.2 kmh N 5.4 mph8.7 kmh 25.16 in852.0 mb 0.00 in0.0 mm 0.00 in0.0 mm 0.00 in0.0 mm
02:37 AM 58.8°F14.9°C 41.7°F5.4°C 53% 2.0 mph N3.2 kmh N 6.9 mph11.1 kmh 25.16 in852.0 mb 0.00 in0.0 mm 0.00 in0.0 mm 0.00 in0.0 mm
02:32 AM 58.8°F14.9°C 42.3°F5.7°C 54% 2.0 mph NNE3.2 kmh NNE 4.9 mph7.9 kmh 25.16 in852.0 mb 0.00 in0.0 mm 0.00 in0.0 mm 0.00 in0.0 mm
02:27 AM 58.6°F14.8°C 42.4°F5.8°C 55% 3.0 mph NNE4.8 kmh NNE 5.8 mph9.3 kmh 25.16 in852.0 mb 0.00 in0.0 mm 0.00 in0.0 mm 0.00 in0.0 mm
02:22 AM 58.8°F14.9°C 43.2°F6.2°C 56% 4.0 mph NNE6.4 kmh NNE 7.8 mph12.6 kmh 25.16 in852.0 mb 0.00 in0.0 mm 0.00 in0.0 mm 0.00 in0.0 mm
02:17 AM 58.5°F14.7°C 44.6°F7.0°C 60% 3.0 mph NNE4.8 kmh NNE 7.4 mph11.9 kmh 25.16 in852.0 mb 0.00 in0.0 mm 0.00 in0.0 mm 0.00 in0.0 mm
02:12 AM 57.6°F14.2°C 45.9°F7.7°C 65% 2.0 mph NE3.2 kmh NE 7.8 mph12.6 kmh 25.16 in852.0 mb 0.00 in0.0 mm 0.00 in0.0 mm 0.00 in0.0 mm
02:07 AM 57.0°F13.9°C 45.3°F7.4°C 65% 1.0 mph NE1.6 kmh NE 3.1 mph5.0 kmh 25.16 in852.0 mb 0.00 in0.0 mm 0.00 in0.0 mm 0.00 in0.0 mm
02:02 AM 57.2°F14.0°C 45.1°F7.3°C 64% 1.0 mph NE1.6 kmh NE 4.0 mph6.4 kmh 25.16 in852.0 mb 0.00 in0.0 mm 0.00 in0.0 mm 0.00 in0.0 mm
01:57 AM 57.6°F14.2°C 45.1°F7.3°C 63% 1.0 mph NNE1.6 kmh NNE 5.4 mph8.7 kmh 25.16 in852.0 mb 0.00 in0.0 mm 0.00 in0.0 mm 0.00 in0.0 mm
01:52 AM 58.3°F14.6°C 44.1°F6.7°C 59% 1.0 mph NNW1.6 kmh NNW 4.5 mph7.2 kmh 25.16 in852.0 mb 0.00 in0.0 mm 0.00 in0.0 mm 0.00 in0.0 mm
01:47 AM 58.8°F14.9°C 43.2°F6.2°C 56% Calm Calm 4.0 mph6.4 kmh 25.16 in852.0 mb 0.00 in0.0 mm 0.00 in0.0 mm 0.00 in0.0 mm
01:42 AM 58.5°F14.7°C 43.3°F6.3°C 57% Calm Calm 4.0 mph6.4 kmh 25.16 in852.0 mb 0.00 in0.0 mm 0.00 in0.0 mm 0.00 in0.0 mm
01:37 AM 59.2°F15.1°C 44.4°F6.9°C 58% Calm Calm 2.7 mph4.3 kmh 25.16 in852.0 mb 0.00 in0.0 mm 0.00 in0.0 mm 0.00 in0.0 mm
01:32 AM 59.0°F15.0°C 43.3°F6.3°C 56% Calm Calm -- 25.16 in852.0 mb 0.00 in0.0 mm 0.00 in0.0 mm 0.00 in0.0 mm
01:27 AM 58.5°F14.7°C 43.7°F6.5°C 58% Calm Calm -- 25.16 in852.0 mb 0.00 in0.0 mm 0.00 in0.0 mm 0.00 in0.0 mm
01:22 AM 58.3°F14.6°C 44.1°F6.7°C 59% Calm Calm -- 25.16 in852.0 mb 0.00 in0.0 mm 0.00 in0.0 mm 0.00 in0.0 mm
01:17 AM 58.5°F14.7°C 44.2°F6.8°C 59% Calm Calm -- 25.16 in852.0 mb 0.00 in0.0 mm 0.00 in0.0 mm 0.00 in0.0 mm
01:12 AM 58.6°F14.8°C 43.0°F6.1°C 56% Calm Calm -- 25.16 in852.0 mb 0.00 in0.0 mm 0.00 in0.0 mm 0.00 in0.0 mm
01:07 AM 59.2°F15.1°C 42.1°F5.6°C 53% 1.0 mph N1.6 kmh N -- 25.16 in852.0 mb 0.00 in0.0 mm 0.00 in0.0 mm 0.00 in0.0 mm
01:02 AM 60.4°F15.8°C 42.3°F5.7°C 51% 3.0 mph N4.8 kmh N 4.5 mph7.2 kmh 25.16 in852.0 mb 0.00 in0.0 mm 0.00 in0.0 mm 0.00 in0.0 mm
12:57 AM 62.1°F16.7°C 39.9°F4.4°C 44% 3.0 mph N4.8 kmh N 5.4 mph8.7 kmh 25.16 in852.0 mb 0.00 in0.0 mm 0.00 in0.0 mm 0.00 in0.0 mm
12:52 AM 62.2°F16.8°C 38.8°F3.8°C 42% 4.0 mph N6.4 kmh N 6.9 mph11.1 kmh 25.16 in852.0 mb 0.00 in0.0 mm 0.00 in0.0 mm 0.00 in0.0 mm
12:47 AM 61.2°F16.2°C 40.3°F4.6°C 46% 3.0 mph NNE4.8 kmh NNE 5.8 mph9.3 kmh 25.16 in852.0 mb 0.00 in0.0 mm 0.00 in0.0 mm 0.00 in0.0 mm
12:42 AM 60.6°F15.9°C 40.8°F4.9°C 48% 3.0 mph N4.8 kmh N 4.9 mph7.9 kmh 25.16 in852.0 mb 0.00 in0.0 mm 0.00 in0.0 mm 0.00 in0.0 mm
12:37 AM 61.3°F16.3°C 40.5°F4.7°C 46% 2.0 mph N3.2 kmh N 5.8 mph9.3 kmh 25.16 in852.0 mb 0.00 in0.0 mm 0.00 in0.0 mm 0.00 in0.0 mm
12:32 AM 61.0°F16.1°C 40.6°F4.8°C 47% 1.0 mph N1.6 kmh N 4.9 mph7.9 kmh 25.16 in852.0 mb 0.00 in0.0 mm 0.00 in0.0 mm 0.00 in0.0 mm
12:27 AM 60.6°F15.9°C 40.8°F4.9°C 48% 1.0 mph N1.6 kmh N 4.5 mph7.2 kmh 25.16 in852.0 mb 0.00 in0.0 mm 0.00 in0.0 mm 0.00 in0.0 mm
12:22 AM 60.6°F15.9°C 40.8°F4.9°C 48% Calm Calm 3.1 mph5.0 kmh 25.16 in852.0 mb 0.00 in0.0 mm 0.00 in0.0 mm 0.00 in0.0 mm
12:17 AM 60.8°F16.0°C 40.5°F4.7°C 47% 2.0 mph N3.2 kmh N 4.0 mph6.4 kmh 25.16 in852.0 mb 0.00 in0.0 mm 0.00 in0.0 mm 0.00 in0.0 mm
12:12 AM 60.4°F15.8°C 40.6°F4.8°C 48% 4.0 mph N6.4 kmh N 6.3 mph10.1 kmh 25.16 in852.0 mb 0.00 in0.0 mm 0.00 in0.0 mm 0.00 in0.0 mm
12:07 AM 60.8°F16.0°C 41.5°F5.3°C 49% 5.0 mph N8.0 kmh N 8.3 mph13.4 kmh 25.16 in852.0 mb 0.00 in0.0 mm 0.00 in0.0 mm 0.00 in0.0 mm
12:02 AM 60.1°F15.6°C 41.9°F5.5°C 51% 5.0 mph NNE8.0 kmh NNE 7.8 mph12.6 kmh 25.16 in852.0 mb 0.00 in0.0 mm 0.00 in0.0 mm 0.00 in0.0 mm